Time;durP1;ratioP1;P1;durP2;ratioP2;P2;SDS_P1;SDS_P2;PMS_P1;PMS_P2;Temp;Humidity;BMP_temperature;BMP_pressure;BME280_temperature;BME280_humidity;BME280_pressure;Samples;Min_cycle;Max_cycle;Signal;HPM_P1;HPM_P2
2022/10/30 00:02:22;;;;;;;6.60;4.28;;;;;;;;;;5032063;28;20545;-75
2022/10/30 00:04:49;;;;;;;9.75;4.40;;;;;;;;;;5032250;28;20533;-75
2022/10/30 00:07:15;;;;;;;11.00;4.70;;;;;;;;;;5048103;28;20041;-75
2022/10/30 00:09:41;;;;;;;8.65;4.28;;;;;;;;;;5028232;28;20068;-75
2022/10/30 00:12:07;;;;;;;6.22;3.80;;;;;;;;;;5049905;28;20051;-75
2022/10/30 00:14:33;;;;;;;10.48;4.65;;;;;;;;;;5033384;28;20071;-75
2022/10/30 00:16:59;;;;;;;17.75;6.38;;;;;;;;;;5032203;28;20045;-75
2022/10/30 00:19:25;;;;;;;11.40;4.68;;;;;;;;;;5047256;28;20970;-75
2022/10/30 00:21:52;;;;;;;13.85;4.55;;;;;;;;;;5032631;28;20047;-75
2022/10/30 00:24:18;;;;;;;11.63;3.90;;;;;;;;;;5034878;28;20052;-75
2022/10/30 00:26:44;;;;;;;9.07;5.22;;;;;;;;;;5050454;28;20044;-75
2022/10/30 00:29:10;;;;;;;9.23;4.57;;;;;;;;;;5033027;28;20051;-75
2022/10/30 00:31:36;;;;;;;10.13;3.97;;;;;;;;;;5049045;28;20041;-75
2022/10/30 00:34:02;;;;;;;10.48;4.80;;;;;;;;;;5050393;28;20045;-75
2022/10/30 00:36:28;;;;;;;16.55;4.85;;;;;;;;;;5027412;28;20037;-75
2022/10/30 00:38:54;;;;;;;11.55;5.15;;;;;;;;;;5027169;28;20052;-75
2022/10/30 00:41:22;;;;;;;9.65;3.47;;;;;;;;;;5048823;28;21032;-75
2022/10/30 00:43:48;;;;;;;8.43;3.70;;;;;;;;;;5050419;28;20103;-75
2022/10/30 00:46:20;;;;;;;10.20;5.45;;;;;;;;;;5051563;28;20700;-75
2022/10/30 00:48:46;;;;;;;;;;;;;;;;;;5032750;28;20043;-74
2022/10/30 00:51:13;;;;;;;10.13;4.85;;;;;;;;;;5049377;28;19991;-75
2022/10/30 00:53:39;;;;;;;11.48;4.45;;;;;;;;;;5032020;28;20041;-74
2022/10/30 00:56:06;;;;;;;9.85;4.20;;;;;;;;;;5025850;28;20087;-75
2022/10/30 00:58:35;;;;;;;10.02;4.15;;;;;;;;;;5049609;28;20068;-74
2022/10/30 01:01:03;;;;;;;8.43;4.80;;;;;;;;;;5031208;28;20060;-75
2022/10/30 01:03:30;;;;;;;10.75;4.95;;;;;;;;;;5048060;28;20051;-74
2022/10/30 01:06:00;;;;;;;9.88;5.40;;;;;;;;;;5049830;28;20076;-75
2022/10/30 01:08:26;;;;;;;8.93;4.60;;;;;;;;;;5049070;28;20037;-75
2022/10/30 01:10:52;;;;;;;15.18;4.88;;;;;;;;;;5050068;28;20073;-75
2022/10/30 01:13:19;;;;;;;9.15;5.95;;;;;;;;;;5047064;28;20063;-75
2022/10/30 01:16:05;;;;;;;10.00;4.90;;;;;;;;;;5049864;28;20037;-75
2022/10/30 01:18:43;;;;;;;17.23;5.47;;;;;;;;;;4997745;28;20568;-75
2022/10/30 01:21:15;;;;;;;11.00;4.75;;;;;;;;;;5048226;28;21182;-75
2022/10/30 01:24:04;;;;;;;11.48;5.15;;;;;;;;;;5046922;28;20040;-74
2022/10/30 01:26:33;;;;;;;17.38;6.32;;;;;;;;;;5049136;28;20044;-74
2022/10/30 01:29:11;;;;;;;11.73;5.43;;;;;;;;;;5048111;28;20045;-75
2022/10/30 01:31:43;;;;;;;13.68;5.65;;;;;;;;;;5030643;28;20071;-74
2022/10/30 01:34:17;;;;;;;13.10;4.65;;;;;;;;;;5033146;28;20037;-75
2022/10/30 01:36:46;;;;;;;13.52;4.53;;;;;;;;;;5028364;28;20076;-75
2022/10/30 01:39:12;;;;;;;13.50;5.25;;;;;;;;;;5049774;28;20124;-75
2022/10/30 01:41:38;;;;;;;16.10;5.63;;;;;;;;;;5049063;28;20045;-75
2022/10/30 01:44:08;;;;;;;9.15;4.90;;;;;;;;;;5051595;28;20155;-74
2022/10/30 01:46:37;;;;;;;9.30;4.20;;;;;;;;;;5050956;28;20044;-74
2022/10/30 01:49:09;;;;;;;7.28;4.03;;;;;;;;;;5032689;28;20041;-74
2022/10/30 01:51:51;;;;;;;15.07;6.05;;;;;;;;;;5049587;28;20069;-75
2022/10/30 01:54:27;;;;;;;7.32;4.95;;;;;;;;;;5048690;28;20121;-74
2022/10/30 01:57:03;;;;;;;11.30;4.90;;;;;;;;;;5034287;28;20054;-75
2022/10/30 01:59:32;;;;;;;18.63;5.05;;;;;;;;;;5033004;28;20051;-74
2022/10/30 02:01:58;;;;;;;11.38;4.30;;;;;;;;;;5051276;28;21692;-75
2022/10/30 02:04:24;;;;;;;9.80;4.53;;;;;;;;;;5050482;28;20049;-74
2022/10/30 02:06:50;;;;;;;10.55;5.35;;;;;;;;;;5049249;28;20033;-74
2022/10/30 02:09:17;;;;;;;11.10;4.20;;;;;;;;;;5050308;28;20121;-74
2022/10/30 02:11:44;;;;;;;15.20;4.13;;;;;;;;;;5050045;28;20124;-75
2022/10/30 02:14:10;;;;;;;10.68;3.92;;;;;;;;;;5051377;28;20041;-74
2022/10/30 02:16:38;;;;;;;13.27;5.30;;;;;;;;;;5045876;28;21471;-75
2022/10/30 02:19:06;;;;;;;13.10;4.32;;;;;;;;;;5050578;28;20041;-74
2022/10/30 02:21:32;;;;;;;12.57;4.55;;;;;;;;;;5034054;28;20049;-74
2022/10/30 02:23:58;;;;;;;14.57;4.90;;;;;;;;;;5050760;28;20055;-74
2022/10/30 02:26:24;;;;;;;9.20;4.18;;;;;;;;;;5031279;28;20604;-75
2022/10/30 02:28:50;;;;;;;6.93;4.47;;;;;;;;;;5053367;28;20063;-75
2022/10/30 02:31:18;;;;;;;17.45;5.15;;;;;;;;;;5031766;28;20045;-74
2022/10/30 02:33:47;;;;;;;10.15;4.30;;;;;;;;;;5029824;28;20169;-75
2022/10/30 02:36:16;;;;;;;10.02;4.50;;;;;;;;;;5036678;28;20033;-75
2022/10/30 02:38:43;;;;;;;13.85;3.92;;;;;;;;;;5034493;28;20096;-75
2022/10/30 02:41:09;;;;;;;11.65;4.93;;;;;;;;;;5053157;28;20052;-74
2022/10/30 02:43:36;;;;;;;7.30;3.97;;;;;;;;;;5056528;28;20052;-75
2022/10/30 02:46:02;;;;;;;11.00;6.25;;;;;;;;;;5060358;28;20038;-74
2022/10/30 02:48:29;;;;;;;10.65;4.50;;;;;;;;;;5040398;28;20561;-75
2022/10/30 02:51:02;;;;;;;9.63;4.90;;;;;;;;;;5039529;28;20044;-74
2022/10/30 02:53:29;;;;;;;10.60;4.10;;;;;;;;;;5055127;28;20041;-74
2022/10/30 02:55:55;;;;;;;10.38;5.30;;;;;;;;;;5056734;28;20148;-74
2022/10/30 02:58:21;;;;;;;13.40;4.05;;;;;;;;;;5054498;28;20478;-75
2022/10/30 03:00:47;;;;;;;16.20;4.70;;;;;;;;;;5052319;28;20053;-75
2022/10/30 03:03:13;;;;;;;13.90;4.68;;;;;;;;;;5053492;28;20132;-74
2022/10/30 03:05:39;;;;;;;12.68;4.53;;;;;;;;;;5052246;28;20088;-75
2022/10/30 03:08:05;;;;;;;12.07;4.78;;;;;;;;;;5052631;28;20040;-75
2022/10/30 03:10:31;;;;;;;10.82;4.07;;;;;;;;;;5030431;28;20048;-75
2022/10/30 03:12:58;;;;;;;8.50;4.30;;;;;;;;;;5051942;28;20072;-75
2022/10/30 03:15:24;;;;;;;21.45;5.93;;;;;;;;;;5053592;28;20115;-75
2022/10/30 03:17:51;;;;;;;11.15;4.63;;;;;;;;;;5053358;28;20046;-74
2022/10/30 03:20:18;;;;;;;13.80;4.40;;;;;;;;;;5052620;28;20049;-75
2022/10/30 03:22:44;;;;;;;12.27;4.80;;;;;;;;;;5051762;28;20048;-74
2022/10/30 03:25:10;;;;;;;9.75;5.82;;;;;;;;;;5053224;28;20044;-74
2022/10/30 03:27:36;;;;;;;9.13;4.60;;;;;;;;;;5035920;28;20045;-74
2022/10/30 03:30:02;;;;;;;7.70;3.95;;;;;;;;;;5053342;28;20073;-75
2022/10/30 03:32:28;;;;;;;11.57;4.95;;;;;;;;;;5051451;28;20041;-75
2022/10/30 03:34:54;;;;;;;8.98;5.65;;;;;;;;;;5052164;28;20037;-75
2022/10/30 03:37:20;;;;;;;11.45;4.57;;;;;;;;;;5051919;28;20107;-74
2022/10/30 03:39:46;;;;;;;8.00;4.63;;;;;;;;;;5051734;28;20047;-74
2022/10/30 03:42:12;;;;;;;11.45;4.53;;;;;;;;;;5053115;28;20041;-75
2022/10/30 03:44:38;;;;;;;9.38;4.15;;;;;;;;;;5048180;28;20037;-75
2022/10/30 03:47:04;;;;;;;8.75;4.05;;;;;;;;;;5050558;28;20040;-75
2022/10/30 03:49:31;;;;;;;13.35;5.30;;;;;;;;;;5033903;28;20613;-74
2022/10/30 03:51:57;;;;;;;12.90;4.15;;;;;;;;;;5050658;28;20045;-75
2022/10/30 03:54:23;;;;;;;13.23;5.30;;;;;;;;;;5051411;28;20051;-75
2022/10/30 03:56:49;;;;;;;8.20;4.78;;;;;;;;;;5029259;28;20124;-76
2022/10/30 03:59:15;;;;;;;12.18;6.03;;;;;;;;;;5047353;28;20128;-75
2022/10/30 04:01:41;;;;;;;13.48;5.47;;;;;;;;;;5032322;28;20056;-75
2022/10/30 04:04:07;;;;;;;9.55;4.68;;;;;;;;;;5051058;28;20033;-75
2022/10/30 04:06:33;;;;;;;10.32;4.97;;;;;;;;;;5052921;28;20053;-74
2022/10/30 04:08:59;;;;;;;6.43;3.35;;;;;;;;;;5028174;28;20053;-75
2022/10/30 04:11:25;;;;;;;13.68;4.18;;;;;;;;;;5028909;28;20041;-75
2022/10/30 04:13:51;;;;;;;11.52;4.10;;;;;;;;;;5052073;28;20061;-75
2022/10/30 04:16:17;;;;;;;12.55;4.22;;;;;;;;;;5053009;28;20051;-74
2022/10/30 04:18:43;;;;;;;13.93;4.72;;;;;;;;;;5052202;28;20037;-74
2022/10/30 04:21:09;;;;;;;10.57;4.90;;;;;;;;;;5052853;28;20080;-75
2022/10/30 04:23:35;;;;;;;10.45;4.50;;;;;;;;;;5052417;28;20083;-74
2022/10/30 04:26:02;;;;;;;9.38;5.03;;;;;;;;;;5051009;28;20040;-75
2022/10/30 04:28:28;;;;;;;13.73;4.20;;;;;;;;;;5033367;28;20045;-74
2022/10/30 04:30:54;;;;;;;17.95;5.40;;;;;;;;;;5048040;28;20046;-75
2022/10/30 04:33:20;;;;;;;14.35;5.85;;;;;;;;;;5027015;28;20079;-74
2022/10/30 04:35:46;;;;;;;14.63;4.65;;;;;;;;;;5053302;28;20127;-74
2022/10/30 04:38:13;;;;;;;10.30;4.28;;;;;;;;;;5051571;28;20155;-75
2022/10/30 04:40:40;;;;;;;11.63;4.65;;;;;;;;;;5050514;28;20128;-75
2022/10/30 04:43:07;;;;;;;11.23;4.75;;;;;;;;;;5050551;28;20045;-74
2022/10/30 04:45:33;;;;;;;9.80;5.15;;;;;;;;;;5050940;28;20122;-75
2022/10/30 04:48:03;;;;;;;12.10;4.93;;;;;;;;;;5050383;28;20052;-75
2022/10/30 04:50:30;;;;;;;7.20;4.47;;;;;;;;;;5049438;28;20098;-74
2022/10/30 04:53:02;;;;;;;10.32;3.92;;;;;;;;;;5051027;28;20513;-74
2022/10/30 04:55:29;;;;;;;13.05;4.85;;;;;;;;;;5051430;28;20041;-75
2022/10/30 04:57:56;;;;;;;16.13;4.85;;;;;;;;;;5049304;28;20100;-75
2022/10/30 05:00:22;;;;;;;7.93;4.43;;;;;;;;;;5026412;28;20050;-75
2022/10/30 05:02:48;;;;;;;11.30;4.57;;;;;;;;;;5028580;28;20116;-74
2022/10/30 05:05:14;;;;;;;8.75;4.45;;;;;;;;;;5026547;28;20045;-75
2022/10/30 05:07:40;;;;;;;12.68;4.10;;;;;;;;;;5027228;28;20603;-74
2022/10/30 05:10:07;;;;;;;15.68;4.95;;;;;;;;;;5029665;28;20121;-75
2022/10/30 05:12:33;;;;;;;7.35;4.65;;;;;;;;;;5024006;28;20985;-76
2022/10/30 05:14:59;;;;;;;7.55;4.80;;;;;;;;;;5027112;28;20522;-74
2022/10/30 05:17:25;;;;;;;9.98;4.28;;;;;;;;;;5027779;28;20518;-74
2022/10/30 05:19:51;;;;;;;15.27;4.53;;;;;;;;;;5029687;28;20045;-74
2022/10/30 05:22:19;;;;;;;8.63;5.32;;;;;;;;;;5029726;28;20038;-74
2022/10/30 05:24:46;;;;;;;10.15;4.45;;;;;;;;;;5022526;28;21591;-74
2022/10/30 05:27:12;;;;;;;9.63;4.10;;;;;;;;;;5026838;28;20074;-75
2022/10/30 05:29:38;;;;;;;9.50;4.25;;;;;;;;;;5029277;28;20289;-74
2022/10/30 05:32:04;;;;;;;9.95;4.10;;;;;;;;;;5023241;28;20046;-75
2022/10/30 05:34:30;;;;;;;10.27;4.30;;;;;;;;;;5028886;28;20037;-75
2022/10/30 05:36:56;;;;;;;10.73;5.50;;;;;;;;;;5025353;28;20132;-75
2022/10/30 05:39:22;;;;;;;10.07;5.35;;;;;;;;;;5030800;28;20121;-74
2022/10/30 05:41:48;;;;;;;11.00;4.93;;;;;;;;;;5030627;28;20193;-75
2022/10/30 05:44:15;;;;;;;6.68;4.10;;;;;;;;;;5029560;28;20045;-76
2022/10/30 05:46:41;;;;;;;15.35;5.32;;;;;;;;;;5029202;28;20043;-76
2022/10/30 05:49:07;;;;;;;12.30;4.45;;;;;;;;;;5031058;28;20088;-76
2022/10/30 05:51:33;;;;;;;7.57;4.25;;;;;;;;;;5025728;28;20038;-76
2022/10/30 05:53:59;;;;;;;13.43;4.53;;;;;;;;;;5030530;28;20573;-76
2022/10/30 05:56:25;;;;;;;10.63;4.20;;;;;;;;;;5032081;28;20167;-76
2022/10/30 05:58:51;;;;;;;7.95;4.97;;;;;;;;;;5029861;28;20103;-76
2022/10/30 06:01:18;;;;;;;13.63;4.47;;;;;;;;;;5045916;28;20049;-76
2022/10/30 06:03:44;;;;;;;10.65;4.80;;;;;;;;;;5048238;28;20513;-76
2022/10/30 06:06:10;;;;;;;9.63;4.57;;;;;;;;;;5034781;28;20064;-76
2022/10/30 06:08:36;;;;;;;7.70;4.07;;;;;;;;;;5051980;28;20169;-75
2022/10/30 06:11:02;;;;;;;14.00;5.65;;;;;;;;;;5050536;28;20191;-75
2022/10/30 06:13:28;;;;;;;6.90;4.22;;;;;;;;;;5050110;28;20167;-75
2022/10/30 06:15:55;;;;;;;12.70;5.47;;;;;;;;;;5051283;28;20045;-76
2022/10/30 06:18:21;;;;;;;8.52;4.50;;;;;;;;;;5051961;28;20045;-75
2022/10/30 06:20:47;;;;;;;11.15;5.13;;;;;;;;;;5052575;28;20044;-75
2022/10/30 06:23:14;;;;;;;11.43;4.78;;;;;;;;;;5036680;28;20052;-75
2022/10/30 06:25:40;;;;;;;15.32;4.60;;;;;;;;;;5052868;28;20653;-76
2022/10/30 06:28:06;;;;;;;9.65;5.05;;;;;;;;;;5052996;28;20832;-75
2022/10/30 06:30:32;;;;;;;11.65;4.55;;;;;;;;;;5035096;28;20037;-75
2022/10/30 06:32:59;;;;;;;14.50;4.68;;;;;;;;;;5032766;28;20084;-76
2022/10/30 06:35:26;;;;;;;9.25;4.25;;;;;;;;;;5035179;28;20049;-75
2022/10/30 06:37:53;;;;;;;9.63;4.30;;;;;;;;;;5047638;28;20045;-75
2022/10/30 06:40:20;;;;;;;9.77;4.45;;;;;;;;;;5051974;28;20041;-75
2022/10/30 06:42:47;;;;;;;10.90;5.03;;;;;;;;;;5035953;28;20092;-74
2022/10/30 06:45:14;;;;;;;13.85;5.63;;;;;;;;;;5052367;28;20581;-75
2022/10/30 06:47:40;;;;;;;7.60;4.30;;;;;;;;;;5054830;28;20045;-75
2022/10/30 06:50:07;;;;;;;9.82;5.15;;;;;;;;;;5053387;28;20056;-76
2022/10/30 06:52:33;;;;;;;16.90;5.75;;;;;;;;;;5055334;28;20052;-77
2022/10/30 06:54:59;;;;;;;12.10;5.00;;;;;;;;;;5055837;28;20047;-77
2022/10/30 06:57:25;;;;;;;12.60;4.95;;;;;;;;;;5055367;28;20049;-76
2022/10/30 06:59:51;;;;;;;14.93;4.72;;;;;;;;;;5055941;28;20526;-76
2022/10/30 07:02:18;;;;;;;11.85;4.57;;;;;;;;;;5056260;28;20037;-77
2022/10/30 07:04:44;;;;;;;14.90;4.63;;;;;;;;;;5039234;28;20127;-76
2022/10/30 07:07:11;;;;;;;8.63;4.43;;;;;;;;;;5056503;28;20489;-76
2022/10/30 07:09:37;;;;;;;6.50;4.22;;;;;;;;;;5056256;28;20045;-76
2022/10/30 07:12:03;;;;;;;11.30;4.53;;;;;;;;;;5057409;28;20053;-76
2022/10/30 07:14:29;;;;;;;10.02;4.75;;;;;;;;;;5056780;28;20037;-76
2022/10/30 07:16:55;;;;;;;11.07;5.53;;;;;;;;;;5038111;28;20044;-76
2022/10/30 07:19:22;;;;;;;12.20;5.60;;;;;;;;;;5038901;28;20052;-76
2022/10/30 07:21:48;;;;;;;13.95;5.75;;;;;;;;;;5056329;28;20534;-76
2022/10/30 07:24:15;;;;;;;17.10;6.88;;;;;;;;;;5054720;28;20040;-76
2022/10/30 07:26:41;;;;;;;15.68;5.82;;;;;;;;;;5037178;28;20454;-76
2022/10/30 07:29:07;;;;;;;14.30;6.80;;;;;;;;;;5057371;28;20660;-75
2022/10/30 07:31:33;;;;;;;17.77;5.43;;;;;;;;;;5037574;28;20139;-76
2022/10/30 07:33:59;;;;;;;14.20;5.50;;;;;;;;;;5038786;28;20473;-76
2022/10/30 07:36:25;;;;;;;11.48;4.75;;;;;;;;;;5055262;28;20045;-76
2022/10/30 07:38:52;;;;;;;13.25;5.10;;;;;;;;;;5056171;28;20048;-76
2022/10/30 07:41:18;;;;;;;16.75;6.47;;;;;;;;;;5056444;28;20056;-76
2022/10/30 07:43:45;;;;;;;11.27;5.05;;;;;;;;;;5054972;28;20047;-76
2022/10/30 07:46:11;;;;;;;11.38;4.90;;;;;;;;;;5055871;28;21251;-76
2022/10/30 07:48:37;;;;;;;16.95;5.95;;;;;;;;;;5056228;28;20037;-77
2022/10/30 07:51:06;;;;;;;11.57;5.15;;;;;;;;;;5055310;28;20052;-76
2022/10/30 07:53:32;;;;;;;14.20;5.20;;;;;;;;;;5038158;28;20052;-76
2022/10/30 07:55:58;;;;;;;11.15;4.82;;;;;;;;;;5055702;28;20084;-76
2022/10/30 07:58:24;;;;;;;11.85;5.35;;;;;;;;;;5054921;28;20049;-77
2022/10/30 08:00:50;;;;;;;13.30;4.68;;;;;;;;;;5055137;28;20210;-76
2022/10/30 08:03:16;;;;;;;14.20;5.50;;;;;;;;;;5056613;28;20561;-76
2022/10/30 08:05:43;;;;;;;10.85;4.55;;;;;;;;;;5032786;28;20124;-77
2022/10/30 08:08:09;;;;;;;12.68;5.32;;;;;;;;;;5034256;28;20028;-76
2022/10/30 08:10:35;;;;;;;9.38;4.78;;;;;;;;;;5055916;28;20048;-76
2022/10/30 08:13:01;;;;;;;10.77;5.63;;;;;;;;;;5039298;28;20449;-76
2022/10/30 08:15:28;;;;;;;12.88;5.32;;;;;;;;;;5055021;28;20055;-76
2022/10/30 08:17:54;;;;;;;10.52;5.22;;;;;;;;;;5035008;28;20041;-76
2022/10/30 08:20:22;;;;;;;10.25;4.65;;;;;;;;;;5055438;28;20123;-77
2022/10/30 08:22:54;;;;;;;10.27;5.88;;;;;;;;;;5056401;28;20616;-77
2022/10/30 08:25:21;;;;;;;13.70;4.53;;;;;;;;;;5055997;28;20037;-77
2022/10/30 08:27:51;;;;;;;8.10;4.50;;;;;;;;;;5054950;28;20116;-76
2022/10/30 08:30:18;;;;;;;8.63;4.78;;;;;;;;;;5056364;28;20055;-77
2022/10/30 08:32:44;;;;;;;12.07;4.57;;;;;;;;;;5053197;28;20049;-77
2022/10/30 08:35:10;;;;;;;7.57;4.18;;;;;;;;;;5054988;28;20040;-77
2022/10/30 08:37:36;;;;;;;6.95;4.00;;;;;;;;;;5037224;28;20044;-76
2022/10/30 08:40:02;;;;;;;14.20;4.80;;;;;;;;;;5054227;28;20052;-76
2022/10/30 08:42:28;;;;;;;15.45;6.78;;;;;;;;;;5054669;28;20041;-76
2022/10/30 08:44:54;;;;;;;16.83;8.25;;;;;;;;;;5052730;28;20045;-76
2022/10/30 08:47:20;;;;;;;13.20;7.43;;;;;;;;;;5031977;28;20034;-77
2022/10/30 08:49:46;;;;;;;17.73;9.45;;;;;;;;;;5036723;28;20046;-77
2022/10/30 08:52:12;;;;;;;20.75;10.95;;;;;;;;;;5036182;28;20052;-76
2022/10/30 08:54:39;;;;;;;13.52;8.65;;;;;;;;;;5054722;28;20045;-76
2022/10/30 08:57:05;;;;;;;15.27;8.38;;;;;;;;;;5037471;28;20048;-76
2022/10/30 08:59:31;;;;;;;17.30;7.15;;;;;;;;;;5036400;28;20044;-77
2022/10/30 09:01:57;;;;;;;14.93;6.85;;;;;;;;;;5053361;28;20044;-76
2022/10/30 09:04:23;;;;;;;13.65;6.28;;;;;;;;;;5036974;28;20044;-76
2022/10/30 09:06:49;;;;;;;15.82;7.22;;;;;;;;;;5054740;28;20045;-76
2022/10/30 09:09:15;;;;;;;14.23;6.03;;;;;;;;;;5036889;28;20069;-77
2022/10/30 09:11:41;;;;;;;13.73;5.32;;;;;;;;;;5054781;28;20088;-76
2022/10/30 09:14:07;;;;;;;9.85;4.60;;;;;;;;;;5048645;28;20045;-77
2022/10/30 09:16:33;;;;;;;14.02;5.63;;;;;;;;;;5053734;28;20045;-76
2022/10/30 09:18:59;;;;;;;11.73;5.18;;;;;;;;;;5054441;28;20045;-76
2022/10/30 09:21:27;;;;;;;10.88;4.72;;;;;;;;;;5054238;28;20049;-76
2022/10/30 09:23:53;;;;;;;10.43;5.40;;;;;;;;;;5036944;28;20172;-77
2022/10/30 09:26:19;;;;;;;13.10;4.43;;;;;;;;;;5031553;28;20059;-76
2022/10/30 09:28:46;;;;;;;13.25;4.63;;;;;;;;;;5054293;28;20096;-77
2022/10/30 09:31:12;;;;;;;14.43;5.32;;;;;;;;;;5054108;28;20049;-76
2022/10/30 09:33:38;;;;;;;11.73;5.10;;;;;;;;;;5031471;28;20033;-76
2022/10/30 09:36:04;;;;;;;15.77;5.28;;;;;;;;;;5054233;28;20127;-76
2022/10/30 09:38:31;;;;;;;10.13;5.57;;;;;;;;;;5047992;28;20513;-76
2022/10/30 09:41:09;;;;;;;11.43;4.95;;;;;;;;;;5053014;28;20586;-76
2022/10/30 09:43:54;;;;;;;12.43;5.38;;;;;;;;;;5036247;28;20037;-76
2022/10/30 09:46:20;;;;;;;9.13;4.88;;;;;;;;;;5036314;28;20045;-76
2022/10/30 09:48:55;;;;;;;15.75;5.60;;;;;;;;;;5051405;28;20526;-76
2022/10/30 09:51:41;;;;;;;9.52;5.32;;;;;;;;;;5039187;28;20092;-76
2022/10/30 09:54:18;;;;;;;12.57;5.50;;;;;;;;;;5039845;28;20041;-77
2022/10/30 09:56:48;;;;;;;10.27;4.65;;;;;;;;;;5057672;28;20040;-76
2022/10/30 09:59:26;;;;;;;9.57;4.53;;;;;;;;;;5057880;28;20045;-76
2022/10/30 10:01:57;;;;;;;11.18;5.68;;;;;;;;;;5056748;28;20041;-76
2022/10/30 10:04:43;;;;;;;12.05;5.95;;;;;;;;;;5039570;28;20079;-76
2022/10/30 10:07:42;;;;;;;22.35;5.15;;;;;;;;;;5056206;28;20045;-77
2022/10/30 10:10:16;;;;;;;10.70;6.05;;;;;;;;;;4996548;28;20139;-77
2022/10/30 10:12:44;;;;;;;11.32;5.18;;;;;;;;;;5034291;28;20048;-76
2022/10/30 10:15:21;;;;;;;11.15;4.72;;;;;;;;;;5057526;28;20040;-76
2022/10/30 10:17:47;;;;;;;9.65;4.25;;;;;;;;;;5056677;28;20143;-76
2022/10/30 10:20:24;;;;;;;7.10;3.42;;;;;;;;;;5036420;28;20041;-75
2022/10/30 10:22:50;;;;;;;7.63;2.92;;;;;;;;;;5039622;28;20045;-75
2022/10/30 10:25:18;;;;;;;14.85;2.70;;;;;;;;;;5059053;28;20076;-75
2022/10/30 10:27:52;;;;;;;6.18;2.88;;;;;;;;;;5056052;28;20527;-76
2022/10/30 10:30:19;;;;;;;10.02;3.65;;;;;;;;;;5041383;28;20041;-77
2022/10/30 10:33:09;;;;;;;5.90;2.70;;;;;;;;;;5039445;28;20169;-77
2022/10/30 10:35:35;;;;;;;6.25;2.40;;;;;;;;;;5044702;28;20041;-77
2022/10/30 10:38:20;;;;;;;8.88;3.42;;;;;;;;;;5042148;28;20041;-77
2022/10/30 10:40:52;;;;;;;8.30;2.80;;;;;;;;;;5056738;28;20033;-76
2022/10/30 10:43:37;;;;;;;10.63;2.50;;;;;;;;;;5035653;28;20531;-77
2022/10/30 10:46:09;;;;;;;4.43;1.80;;;;;;;;;;5033989;28;20041;-76
2022/10/30 10:48:35;;;;;;;5.25;2.03;;;;;;;;;;5056838;28;20566;-76
2022/10/30 10:51:03;;;;;;;3.60;2.17;;;;;;;;;;5056312;28;20042;-76
2022/10/30 10:53:38;;;;;;;3.17;1.90;;;;;;;;;;5057353;28;20048;-76
2022/10/30 10:56:05;;;;;;;5.68;1.95;;;;;;;;;;5058800;28;20049;-76
2022/10/30 10:58:38;;;;;;;5.28;2.35;;;;;;;;;;5060661;28;20160;-76
2022/10/30 11:01:05;;;;;;;4.57;1.73;;;;;;;;;;5061245;28;20423;-77
2022/10/30 11:03:42;;;;;;;2.78;1.67;;;;;;;;;;5060780;28;20029;-76
2022/10/30 11:06:24;;;;;;;5.30;1.80;;;;;;;;;;5059826;28;20044;-76
2022/10/30 11:08:51;;;;;;;4.03;1.70;;;;;;;;;;5059336;28;20211;-77
2022/10/30 11:11:17;;;;;;;4.95;2.17;;;;;;;;;;5059315;28;20588;-77
2022/10/30 11:13:47;;;;;;;2.47;1.30;;;;;;;;;;5060218;28;20041;-77
2022/10/30 11:16:21;;;;;;;5.20;1.52;;;;;;;;;;5042821;28;20052;-77
2022/10/30 11:18:50;;;;;;;4.22;1.40;;;;;;;;;;5036816;28;20037;-77
2022/10/30 11:21:24;;;;;;;3.25;1.85;;;;;;;;;;5058805;28;20048;-76
2022/10/30 11:23:50;;;;;;;6.57;1.98;;;;;;;;;;5059709;28;20509;-76
2022/10/30 11:26:19;;;;;;;2.92;1.30;;;;;;;;;;5043283;28;20041;-77
2022/10/30 11:28:56;;;;;;;4.35;1.73;;;;;;;;;;5065149;28;20103;-78
2022/10/30 11:31:33;;;;;;;5.93;1.95;;;;;;;;;;5048676;28;20049;-77
2022/10/30 11:34:00;;;;;;;5.75;1.58;;;;;;;;;;5049203;28;20059;-78
2022/10/30 11:36:26;;;;;;;3.10;1.38;;;;;;;;;;5066117;28;20099;-77
2022/10/30 11:38:54;;;;;;;2.00;1.10;;;;;;;;;;5064888;28;20052;-77
2022/10/30 11:41:20;;;;;;;4.97;1.63;;;;;;;;;;5045994;28;20044;-76
2022/10/30 11:43:48;;;;;;;3.60;1.52;;;;;;;;;;5065221;28;20049;-76
2022/10/30 11:46:20;;;;;;;4.07;2.50;;;;;;;;;;5044476;28;20044;-77
2022/10/30 11:48:53;;;;;;;2.60;1.35;;;;;;;;;;5065730;28;20045;-78
2022/10/30 11:51:28;;;;;;;5.78;1.02;;;;;;;;;;5050263;28;20037;-78
2022/10/30 11:53:54;;;;;;;3.30;1.33;;;;;;;;;;5065881;28;20037;-78
2022/10/30 11:56:21;;;;;;;2.15;1.17;;;;;;;;;;5050743;28;20041;-77
2022/10/30 11:58:52;;;;;;;2.25;1.05;;;;;;;;;;5041394;28;20053;-77
2022/10/30 12:01:24;;;;;;;2.63;1.20;;;;;;;;;;5056816;28;20111;-77
2022/10/30 12:03:51;;;;;;;1.98;1.30;;;;;;;;;;5056961;28;20036;-77
2022/10/30 12:06:26;;;;;;;2.45;0.95;;;;;;;;;;5039722;28;20045;-77
2022/10/30 12:09:02;;;;;;;4.00;2.35;;;;;;;;;;5056203;28;20203;-77
2022/10/30 12:11:33;;;;;;;5.30;1.27;;;;;;;;;;5038189;28;20099;-77
2022/10/30 12:14:00;;;;;;;1.77;0.95;;;;;;;;;;5055484;28;20076;-77
2022/10/30 12:16:26;;;;;;;3.28;1.20;;;;;;;;;;5037633;28;20053;-78
2022/10/30 12:18:58;;;;;;;1.30;0.85;;;;;;;;;;5056329;28;20123;-77
2022/10/30 12:21:25;;;;;;;5.90;1.27;;;;;;;;;;5056312;28;20193;-77
2022/10/30 12:23:54;;;;;;;5.63;1.58;;;;;;;;;;5036747;28;20151;-77
2022/10/30 12:26:22;;;;;;;2.60;1.15;;;;;;;;;;5038179;28;20048;-77
2022/10/30 12:28:54;;;;;;;5.72;1.45;;;;;;;;;;5055914;28;20045;-77
2022/10/30 12:31:23;;;;;;;3.75;1.10;;;;;;;;;;5056038;28;20049;-77
2022/10/30 12:33:58;;;;;;;2.35;1.33;;;;;;;;;;5032817;28;20249;-78
2022/10/30 12:36:32;;;;;;;1.48;0.90;;;;;;;;;;5055006;28;20041;-77
2022/10/30 12:38:58;;;;;;;2.88;1.08;;;;;;;;;;5037485;28;20127;-77
2022/10/30 12:41:36;;;;;;;1.77;1.13;;;;;;;;;;5055726;28;20072;-77
2022/10/30 12:44:09;;;;;;;8.02;2.17;;;;;;;;;;5055353;28;20045;-77
2022/10/30 12:46:38;;;;;;;3.85;1.52;;;;;;;;;;5032987;28;20044;-77
2022/10/30 12:49:19;;;;;;;3.53;1.50;;;;;;;;;;5036186;28;20025;-78
2022/10/30 12:52:04;;;;;;;2.13;1.15;;;;;;;;;;5055211;28;20116;-77
2022/10/30 12:54:33;;;;;;;3.45;1.52;;;;;;;;;;5055799;28;20056;-77
2022/10/30 12:57:20;;;;;;;3.80;1.63;;;;;;;;;;5055825;28;20686;-77
2022/10/30 12:59:55;;;;;;;3.65;1.45;;;;;;;;;;5031447;28;20057;-77
2022/10/30 13:02:40;;;;;;;2.97;1.20;;;;;;;;;;5055403;28;20166;-77
2022/10/30 13:05:14;;;;;;;2.15;1.00;;;;;;;;;;5054965;28;20041;-77
2022/10/30 13:07:49;;;;;;;1.42;1.08;;;;;;;;;;5036801;28;20049;-77
2022/10/30 13:10:34;;;;;;;2.55;1.20;;;;;;;;;;5037632;28;20122;-77
2022/10/30 13:13:08;;;;;;;3.35;1.48;;;;;;;;;;5037055;28;20674;-77
2022/10/30 13:15:41;;;;;;;2.95;1.30;;;;;;;;;;5054257;28;21562;-77
2022/10/30 13:18:18;;;;;;;3.00;1.23;;;;;;;;;;5037017;28;20194;-76
2022/10/30 13:20:49;;;;;;;3.22;1.48;;;;;;;;;;5030429;28;20633;-76
2022/10/30 13:23:17;;;;;;;1.10;0.80;;;;;;;;;;5038137;28;20203;-76
2022/10/30 13:26:10;;;;;;;4.88;1.25;;;;;;;;;;5053016;28;20048;-76
2022/10/30 13:28:55;;;;;;;3.67;1.30;;;;;;;;;;5050155;28;20608;-77
2022/10/30 13:31:30;;;;;;;4.60;1.48;;;;;;;;;;5054519;28;20037;-77
2022/10/30 13:33:59;;;;;;;1.83;1.20;;;;;;;;;;5055598;28;20052;-77
2022/10/30 13:36:29;;;;;;;1.73;0.90;;;;;;;;;;5053641;28;20541;-76
2022/10/30 13:38:59;;;;;;;3.53;1.27;;;;;;;;;;5037993;28;20091;-77
2022/10/30 13:41:25;;;;;;;3.83;1.77;;;;;;;;;;5037806;28;20044;-77
2022/10/30 13:44:10;;;;;;;1.95;1.10;;;;;;;;;;5054140;28;20048;-77
2022/10/30 13:46:48;;;;;;;1.90;1.00;;;;;;;;;;5036356;28;20053;-77
2022/10/30 13:49:23;;;;;;;3.63;1.70;;;;;;;;;;5054977;28;20124;-77
2022/10/30 13:51:54;;;;;;;2.08;1.17;;;;;;;;;;5035199;28;20116;-76
2022/10/30 13:54:20;;;;;;;3.50;2.00;;;;;;;;;;5054218;28;20044;-77
2022/10/30 13:56:47;;;;;;;5.20;1.88;;;;;;;;;;5053562;28;20751;-76
2022/10/30 13:59:20;;;;;;;7.15;1.40;;;;;;;;;;5035780;28;20498;-76
2022/10/30 14:02:01;;;;;;;2.25;1.23;;;;;;;;;;5053483;28;20570;-77
2022/10/30 14:04:30;;;;;;;2.55;0.98;;;;;;;;;;5035747;28;20041;-77
2022/10/30 14:07:26;;;;;;;4.10;1.35;;;;;;;;;;5029933;28;20696;-77
2022/10/30 14:09:58;;;;;;;2.08;1.02;;;;;;;;;;4959185;28;20059;-77
2022/10/30 14:12:43;;;;;;;4.28;1.23;;;;;;;;;;5054195;28;20037;-77
2022/10/30 14:15:25;;;;;;;1.77;0.88;;;;;;;;;;5035918;28;20037;-77
2022/10/30 14:18:09;;;;;;;2.28;1.15;;;;;;;;;;5053740;28;20537;-77
2022/10/30 14:20:36;;;;;;;3.35;1.55;;;;;;;;;;5053266;28;20045;-77
2022/10/30 14:23:06;;;;;;;2.75;1.55;;;;;;;;;;5035098;28;20037;-77
2022/10/30 14:25:32;;;;;;;3.92;2.15;;;;;;;;;;5053250;28;20049;-77
2022/10/30 14:27:58;;;;;;;3.85;2.53;;;;;;;;;;5030915;28;20049;-77
2022/10/30 14:30:27;;;;;;;5.10;2.50;;;;;;;;;;5052832;28;20099;-77
2022/10/30 14:32:53;;;;;;;5.18;2.70;;;;;;;;;;5051113;28;20063;-77
2022/10/30 14:35:31;;;;;;;4.90;2.00;;;;;;;;;;5051564;28;20047;-77
2022/10/30 14:38:14;;;;;;;5.38;1.98;;;;;;;;;;5052282;28;20515;-76
2022/10/30 14:40:45;;;;;;;4.55;2.38;;;;;;;;;;5053741;28;20044;-77
2022/10/30 14:43:19;;;;;;;5.30;2.05;;;;;;;;;;5057029;28;20412;-77
2022/10/30 14:45:55;;;;;;;2.55;1.40;;;;;;;;;;5039091;28;20064;-77
2022/10/30 14:48:28;;;;;;;3.83;1.73;;;;;;;;;;5053998;28;20049;-78